sensor_id;sensor_type;location;lat;lon;timestamp;P1;durP1;ratioP1;P2;durP2;ratioP2
70073;SDS011;57445;51.058;3.698;2022-07-22T00:00:33;14.15;;;6.32;;
70073;SDS011;57445;51.058;3.698;2022-07-22T00:03:00;13.38;;;5.15;;
70073;SDS011;57445;51.058;3.698;2022-07-22T00:05:26;11.80;;;4.78;;
70073;SDS011;57445;51.058;3.698;2022-07-22T00:07:55;12.07;;;4.60;;
70073;SDS011;57445;51.058;3.698;2022-07-22T00:10:22;13.30;;;4.43;;
70073;SDS011;57445;51.058;3.698;2022-07-22T00:12:49;11.65;;;3.80;;
70073;SDS011;57445;51.058;3.698;2022-07-22T00:15:17;8.75;;;3.85;;
70073;SDS011;57445;51.058;3.698;2022-07-22T00:17:44;15.77;;;4.90;;
70073;SDS011;57445;51.058;3.698;2022-07-22T00:20:11;7.85;;;3.88;;
70073;SDS011;57445;51.058;3.698;2022-07-22T00:22:38;11.50;;;4.00;;
70073;SDS011;57445;51.058;3.698;2022-07-22T00:25:06;9.75;;;3.40;;
70073;SDS011;57445;51.058;3.698;2022-07-22T00:27:35;10.82;;;4.07;;
70073;SDS011;57445;51.058;3.698;2022-07-22T00:30:05;12.88;;;3.50;;
70073;SDS011;57445;51.058;3.698;2022-07-22T00:32:33;9.82;;;3.80;;
70073;SDS011;57445;51.058;3.698;2022-07-22T00:35:00;11.55;;;4.05;;
70073;SDS011;57445;51.058;3.698;2022-07-22T00:37:27;12.73;;;4.32;;
70073;SDS011;57445;51.058;3.698;2022-07-22T00:39:54;13.73;;;4.13;;
70073;SDS011;57445;51.058;3.698;2022-07-22T00:47:16;14.73;;;5.20;;
70073;SDS011;57445;51.058;3.698;2022-07-22T00:49:43;13.93;;;4.70;;
70073;SDS011;57445;51.058;3.698;2022-07-22T00:54:37;10.13;;;4.35;;
70073;SDS011;57445;51.058;3.698;2022-07-22T00:57:04;10.27;;;4.97;;
70073;SDS011;57445;51.058;3.698;2022-07-22T00:59:32;11.13;;;5.13;;
70073;SDS011;57445;51.058;3.698;2022-07-22T01:01:59;12.00;;;5.20;;
70073;SDS011;57445;51.058;3.698;2022-07-22T01:04:26;11.60;;;4.63;;
70073;SDS011;57445;51.058;3.698;2022-07-22T01:06:53;12.88;;;5.03;;
70073;SDS011;57445;51.058;3.698;2022-07-22T01:09:20;15.68;;;4.75;;
70073;SDS011;57445;51.058;3.698;2022-07-22T01:11:51;10.50;;;4.03;;
70073;SDS011;57445;51.058;3.698;2022-07-22T01:14:18;12.57;;;4.22;;
70073;SDS011;57445;51.058;3.698;2022-07-22T01:16:48;10.55;;;3.80;;
70073;SDS011;57445;51.058;3.698;2022-07-22T01:19:15;11.38;;;4.07;;
70073;SDS011;57445;51.058;3.698;2022-07-22T01:21:43;9.90;;;3.85;;
70073;SDS011;57445;51.058;3.698;2022-07-22T01:24:10;10.98;;;3.88;;
70073;SDS011;57445;51.058;3.698;2022-07-22T01:26:37;12.02;;;4.30;;
70073;SDS011;57445;51.058;3.698;2022-07-22T01:31:33;17.15;;;5.50;;
70073;SDS011;57445;51.058;3.698;2022-07-22T01:34:00;13.32;;;4.65;;
70073;SDS011;57445;51.058;3.698;2022-07-22T01:36:27;13.65;;;5.07;;
70073;SDS011;57445;51.058;3.698;2022-07-22T01:41:22;11.20;;;4.93;;
70073;SDS011;57445;51.058;3.698;2022-07-22T01:46:16;14.50;;;5.82;;
70073;SDS011;57445;51.058;3.698;2022-07-22T01:48:44;15.02;;;6.45;;
70073;SDS011;57445;51.058;3.698;2022-07-22T01:51:11;13.45;;;6.28;;
70073;SDS011;57445;51.058;3.698;2022-07-22T01:53:38;11.65;;;6.18;;
70073;SDS011;57445;51.058;3.698;2022-07-22T01:58:34;14.75;;;6.68;;
70073;SDS011;57445;51.058;3.698;2022-07-22T02:01:01;13.60;;;6.20;;
70073;SDS011;57445;51.058;3.698;2022-07-22T02:03:28;13.13;;;5.35;;
70073;SDS011;57445;51.058;3.698;2022-07-22T02:08:21;16.17;;;5.30;;
70073;SDS011;57445;51.058;3.698;2022-07-22T02:13:16;12.63;;;4.45;;
70073;SDS011;57445;51.058;3.698;2022-07-22T02:15:43;15.20;;;5.72;;
70073;SDS011;57445;51.058;3.698;2022-07-22T02:20:38;9.90;;;4.18;;
70073;SDS011;57445;51.058;3.698;2022-07-22T02:23:05;14.85;;;4.90;;
70073;SDS011;57445;51.058;3.698;2022-07-22T02:25:33;10.32;;;4.35;;
70073;SDS011;57445;51.058;3.698;2022-07-22T02:27:59;10.95;;;4.32;;
70073;SDS011;57445;51.058;3.698;2022-07-22T02:30:28;13.00;;;4.60;;
70073;SDS011;57445;51.058;3.698;2022-07-22T02:32:56;14.82;;;4.93;;
70073;SDS011;57445;51.058;3.698;2022-07-22T02:35:23;10.68;;;4.13;;
70073;SDS011;57445;51.058;3.698;2022-07-22T02:37:50;10.45;;;4.47;;
70073;SDS011;57445;51.058;3.698;2022-07-22T02:40:17;12.75;;;4.40;;
70073;SDS011;57445;51.058;3.698;2022-07-22T02:42:44;7.95;;;3.90;;
70073;SDS011;57445;51.058;3.698;2022-07-22T02:45:11;9.93;;;4.10;;
70073;SDS011;57445;51.058;3.698;2022-07-22T02:47:46;10.38;;;4.20;;
70073;SDS011;57445;51.058;3.698;2022-07-22T02:50:13;10.88;;;4.68;;
70073;SDS011;57445;51.058;3.698;2022-07-22T02:52:42;12.43;;;4.57;;
70073;SDS011;57445;51.058;3.698;2022-07-22T02:55:08;12.45;;;4.40;;
70073;SDS011;57445;51.058;3.698;2022-07-22T02:57:35;11.32;;;4.45;;
70073;SDS011;57445;51.058;3.698;2022-07-22T03:00:05;10.40;;;4.22;;
70073;SDS011;57445;51.058;3.698;2022-07-22T03:02:33;10.70;;;4.80;;
70073;SDS011;57445;51.058;3.698;2022-07-22T03:05:01;10.65;;;4.47;;
70073;SDS011;57445;51.058;3.698;2022-07-22T03:07:29;13.63;;;6.50;;
70073;SDS011;57445;51.058;3.698;2022-07-22T03:12:23;12.93;;;6.03;;
70073;SDS011;57445;51.058;3.698;2022-07-22T03:14:50;13.60;;;6.55;;
70073;SDS011;57445;51.058;3.698;2022-07-22T03:17:17;12.73;;;6.07;;
70073;SDS011;57445;51.058;3.698;2022-07-22T03:19:44;10.40;;;6.05;;
70073;SDS011;57445;51.058;3.698;2022-07-22T03:22:12;12.52;;;6.28;;
70073;SDS011;57445;51.058;3.698;2022-07-22T03:24:39;12.50;;;6.18;;
70073;SDS011;57445;51.058;3.698;2022-07-22T03:29:33;13.75;;;7.32;;
70073;SDS011;57445;51.058;3.698;2022-07-22T03:32:01;16.35;;;6.60;;
70073;SDS011;57445;51.058;3.698;2022-07-22T03:34:28;15.57;;;7.07;;
70073;SDS011;57445;51.058;3.698;2022-07-22T03:36:55;13.68;;;6.45;;
70073;SDS011;57445;51.058;3.698;2022-07-22T03:41:50;12.82;;;6.30;;
70073;SDS011;57445;51.058;3.698;2022-07-22T03:44:17;15.52;;;6.32;;
70073;SDS011;57445;51.058;3.698;2022-07-22T03:46:46;15.18;;;8.75;;
70073;SDS011;57445;51.058;3.698;2022-07-22T03:49:13;13.02;;;5.88;;
70073;SDS011;57445;51.058;3.698;2022-07-22T03:54:06;12.23;;;5.70;;
70073;SDS011;57445;51.058;3.698;2022-07-22T04:01:30;15.30;;;6.20;;
70073;SDS011;57445;51.058;3.698;2022-07-22T04:03:57;9.55;;;5.43;;
70073;SDS011;57445;51.058;3.698;2022-07-22T04:06:26;13.35;;;5.95;;
70073;SDS011;57445;51.058;3.698;2022-07-22T04:08:53;11.68;;;4.97;;
70073;SDS011;57445;51.058;3.698;2022-07-22T04:11:22;15.30;;;6.07;;
70073;SDS011;57445;51.058;3.698;2022-07-22T04:13:50;10.60;;;5.28;;
70073;SDS011;57445;51.058;3.698;2022-07-22T04:16:19;14.05;;;5.65;;
70073;SDS011;57445;51.058;3.698;2022-07-22T04:18:46;10.95;;;5.15;;
70073;SDS011;57445;51.058;3.698;2022-07-22T04:21:13;12.98;;;5.28;;
70073;SDS011;57445;51.058;3.698;2022-07-22T04:26:06;12.88;;;5.20;;
70073;SDS011;57445;51.058;3.698;2022-07-22T04:28:33;11.68;;;5.70;;
70073;SDS011;57445;51.058;3.698;2022-07-22T04:31:02;10.68;;;5.10;;
70073;SDS011;57445;51.058;3.698;2022-07-22T04:33:29;14.98;;;5.72;;
70073;SDS011;57445;51.058;3.698;2022-07-22T04:35:56;10.77;;;5.05;;
70073;SDS011;57445;51.058;3.698;2022-07-22T04:38:24;9.43;;;4.70;;
70073;SDS011;57445;51.058;3.698;2022-07-22T04:40:51;10.25;;;4.95;;
70073;SDS011;57445;51.058;3.698;2022-07-22T04:43:20;9.30;;;5.25;;
70073;SDS011;57445;51.058;3.698;2022-07-22T04:45:49;14.02;;;5.32;;
70073;SDS011;57445;51.058;3.698;2022-07-22T04:48:18;10.55;;;4.95;;
70073;SDS011;57445;51.058;3.698;2022-07-22T04:50:45;12.55;;;5.25;;
70073;SDS011;57445;51.058;3.698;2022-07-22T04:53:12;9.68;;;4.25;;
70073;SDS011;57445;51.058;3.698;2022-07-22T04:55:39;8.85;;;3.97;;
70073;SDS011;57445;51.058;3.698;2022-07-22T04:58:06;13.07;;;4.55;;
70073;SDS011;57445;51.058;3.698;2022-07-22T05:00:34;6.78;;;3.90;;
70073;SDS011;57445;51.058;3.698;2022-07-22T05:03:01;11.60;;;4.40;;
70073;SDS011;57445;51.058;3.698;2022-07-22T05:05:30;12.25;;;4.85;;
70073;SDS011;57445;51.058;3.698;2022-07-22T05:07:57;8.90;;;4.55;;
70073;SDS011;57445;51.058;3.698;2022-07-22T05:10:24;9.25;;;4.45;;
70073;SDS011;57445;51.058;3.698;2022-07-22T05:12:51;11.38;;;4.95;;
70073;SDS011;57445;51.058;3.698;2022-07-22T05:15:18;12.85;;;4.95;;
70073;SDS011;57445;51.058;3.698;2022-07-22T05:17:44;11.57;;;5.10;;
70073;SDS011;57445;51.058;3.698;2022-07-22T05:20:11;11.68;;;4.80;;
70073;SDS011;57445;51.058;3.698;2022-07-22T05:22:40;10.15;;;4.53;;
70073;SDS011;57445;51.058;3.698;2022-07-22T05:25:08;10.60;;;4.50;;
70073;SDS011;57445;51.058;3.698;2022-07-22T05:27:35;12.30;;;4.88;;
70073;SDS011;57445;51.058;3.698;2022-07-22T05:30:02;9.40;;;4.70;;
70073;SDS011;57445;51.058;3.698;2022-07-22T05:32:29;9.82;;;4.65;;
70073;SDS011;57445;51.058;3.698;2022-07-22T05:34:56;11.10;;;4.68;;
70073;SDS011;57445;51.058;3.698;2022-07-22T05:37:24;8.35;;;4.60;;
70073;SDS011;57445;51.058;3.698;2022-07-22T05:39:55;9.88;;;4.40;;
70073;SDS011;57445;51.058;3.698;2022-07-22T05:42:21;8.75;;;4.43;;
70073;SDS011;57445;51.058;3.698;2022-07-22T05:44:48;9.98;;;4.43;;
70073;SDS011;57445;51.058;3.698;2022-07-22T05:47:15;10.20;;;4.53;;
70073;SDS011;57445;51.058;3.698;2022-07-22T05:49:42;11.88;;;4.03;;
70073;SDS011;57445;51.058;3.698;2022-07-22T05:52:09;8.32;;;3.80;;
70073;SDS011;57445;51.058;3.698;2022-07-22T05:54:36;5.93;;;2.65;;
70073;SDS011;57445;51.058;3.698;2022-07-22T05:57:06;13.15;;;3.78;;
70073;SDS011;57445;51.058;3.698;2022-07-22T05:59:34;9.30;;;4.13;;
70073;SDS011;57445;51.058;3.698;2022-07-22T06:02:01;11.30;;;4.18;;
70073;SDS011;57445;51.058;3.698;2022-07-22T06:04:28;11.27;;;3.92;;
70073;SDS011;57445;51.058;3.698;2022-07-22T06:06:55;8.50;;;4.07;;
70073;SDS011;57445;51.058;3.698;2022-07-22T06:09:22;9.95;;;3.30;;
70073;SDS011;57445;51.058;3.698;2022-07-22T06:11:49;9.70;;;3.13;;
70073;SDS011;57445;51.058;3.698;2022-07-22T06:14:19;19.38;;;8.77;;
70073;SDS011;57445;51.058;3.698;2022-07-22T06:16:46;9.80;;;2.70;;
70073;SDS011;57445;51.058;3.698;2022-07-22T06:19:14;6.53;;;2.42;;
70073;SDS011;57445;51.058;3.698;2022-07-22T06:21:41;7.55;;;2.60;;
70073;SDS011;57445;51.058;3.698;2022-07-22T06:24:08;10.43;;;2.65;;
70073;SDS011;57445;51.058;3.698;2022-07-22T06:26:35;6.57;;;2.83;;
70073;SDS011;57445;51.058;3.698;2022-07-22T06:29:02;11.57;;;3.28;;
70073;SDS011;57445;51.058;3.698;2022-07-22T06:31:30;11.07;;;3.45;;
70073;SDS011;57445;51.058;3.698;2022-07-22T06:33:58;16.58;;;4.30;;
70073;SDS011;57445;51.058;3.698;2022-07-22T06:36:30;8.82;;;4.30;;
70073;SDS011;57445;51.058;3.698;2022-07-22T06:38:57;10.07;;;3.70;;
70073;SDS011;57445;51.058;3.698;2022-07-22T06:41:25;8.77;;;3.22;;
70073;SDS011;57445;51.058;3.698;2022-07-22T06:43:53;9.27;;;5.03;;
70073;SDS011;57445;51.058;3.698;2022-07-22T06:46:20;11.15;;;4.97;;
70073;SDS011;57445;51.058;3.698;2022-07-22T06:48:48;11.27;;;4.93;;
70073;SDS011;57445;51.058;3.698;2022-07-22T06:51:15;11.07;;;5.18;;
70073;SDS011;57445;51.058;3.698;2022-07-22T06:53:47;13.45;;;4.60;;
70073;SDS011;57445;51.058;3.698;2022-07-22T06:56:14;10.63;;;4.30;;
70073;SDS011;57445;51.058;3.698;2022-07-22T06:58:41;7.93;;;2.80;;
70073;SDS011;57445;51.058;3.698;2022-07-22T07:01:08;7.82;;;2.42;;
70073;SDS011;57445;51.058;3.698;2022-07-22T07:03:35;8.68;;;2.50;;
70073;SDS011;57445;51.058;3.698;2022-07-22T07:06:06;6.55;;;2.35;;
70073;SDS011;57445;51.058;3.698;2022-07-22T07:08:33;8.30;;;2.15;;
70073;SDS011;57445;51.058;3.698;2022-07-22T07:11:00;9.25;;;2.83;;
70073;SDS011;57445;51.058;3.698;2022-07-22T07:13:28;8.75;;;2.33;;
70073;SDS011;57445;51.058;3.698;2022-07-22T07:15:55;15.90;;;2.75;;
70073;SDS011;57445;51.058;3.698;2022-07-22T07:18:23;7.20;;;2.10;;
70073;SDS011;57445;51.058;3.698;2022-07-22T07:20:51;6.22;;;2.00;;
70073;SDS011;57445;51.058;3.698;2022-07-22T07:23:19;5.55;;;1.65;;
70073;SDS011;57445;51.058;3.698;2022-07-22T07:25:47;7.70;;;1.75;;
70073;SDS011;57445;51.058;3.698;2022-07-22T07:28:14;8.15;;;2.13;;
70073;SDS011;57445;51.058;3.698;2022-07-22T07:30:41;6.80;;;1.95;;
70073;SDS011;57445;51.058;3.698;2022-07-22T07:33:09;4.97;;;1.92;;
70073;SDS011;57445;51.058;3.698;2022-07-22T07:35:35;7.57;;;2.38;;
70073;SDS011;57445;51.058;3.698;2022-07-22T07:38:04;6.78;;;2.22;;
70073;SDS011;57445;51.058;3.698;2022-07-22T07:40:33;9.15;;;3.15;;
70073;SDS011;57445;51.058;3.698;2022-07-22T07:43:00;6.53;;;2.03;;
70073;SDS011;57445;51.058;3.698;2022-07-22T07:45:27;9.77;;;2.55;;
70073;SDS011;57445;51.058;3.698;2022-07-22T07:47:54;7.05;;;2.10;;
70073;SDS011;57445;51.058;3.698;2022-07-22T07:50:21;6.07;;;2.42;;
70073;SDS011;57445;51.058;3.698;2022-07-22T07:52:50;7.32;;;2.60;;
70073;SDS011;57445;51.058;3.698;2022-07-22T07:55:20;8.00;;;2.42;;
70073;SDS011;57445;51.058;3.698;2022-07-22T07:57:49;8.38;;;2.50;;
70073;SDS011;57445;51.058;3.698;2022-07-22T08:00:17;7.85;;;3.03;;
70073;SDS011;57445;51.058;3.698;2022-07-22T08:02:48;10.48;;;2.90;;
70073;SDS011;57445;51.058;3.698;2022-07-22T08:05:15;8.45;;;2.78;;
70073;SDS011;57445;51.058;3.698;2022-07-22T08:07:45;6.88;;;2.53;;
70073;SDS011;57445;51.058;3.698;2022-07-22T08:10:13;6.05;;;2.47;;
70073;SDS011;57445;51.058;3.698;2022-07-22T08:12:40;8.90;;;2.58;;
70073;SDS011;57445;51.058;3.698;2022-07-22T08:15:09;7.57;;;2.78;;
70073;SDS011;57445;51.058;3.698;2022-07-22T08:17:36;8.10;;;2.92;;
70073;SDS011;57445;51.058;3.698;2022-07-22T08:20:06;9.45;;;3.35;;
70073;SDS011;57445;51.058;3.698;2022-07-22T08:22:34;12.77;;;3.22;;
70073;SDS011;57445;51.058;3.698;2022-07-22T08:25:01;8.13;;;3.13;;
70073;SDS011;57445;51.058;3.698;2022-07-22T08:27:29;8.82;;;3.30;;
70073;SDS011;57445;51.058;3.698;2022-07-22T08:30:13;7.10;;;3.00;;
70073;SDS011;57445;51.058;3.698;2022-07-22T08:32:40;7.20;;;3.15;;
70073;SDS011;57445;51.058;3.698;2022-07-22T08:35:08;6.63;;;3.30;;
70073;SDS011;57445;51.058;3.698;2022-07-22T08:37:35;11.02;;;4.10;;
70073;SDS011;57445;51.058;3.698;2022-07-22T08:40:05;9.50;;;3.58;;
70073;SDS011;57445;51.058;3.698;2022-07-22T08:42:37;10.07;;;3.67;;
70073;SDS011;57445;51.058;3.698;2022-07-22T08:45:05;9.70;;;4.45;;
70073;SDS011;57445;51.058;3.698;2022-07-22T08:47:34;9.75;;;4.65;;
70073;SDS011;57445;51.058;3.698;2022-07-22T08:50:02;8.63;;;4.78;;
70073;SDS011;57445;51.058;3.698;2022-07-22T08:52:30;7.18;;;4.35;;
70073;SDS011;57445;51.058;3.698;2022-07-22T08:54:57;8.43;;;4.78;;
70073;SDS011;57445;51.058;3.698;2022-07-22T08:57:24;8.90;;;4.78;;
70073;SDS011;57445;51.058;3.698;2022-07-22T08:59:51;9.77;;;5.47;;
70073;SDS011;57445;51.058;3.698;2022-07-22T09:02:20;12.77;;;6.38;;
70073;SDS011;57445;51.058;3.698;2022-07-22T09:04:53;9.35;;;5.13;;
70073;SDS011;57445;51.058;3.698;2022-07-22T09:07:28;9.27;;;5.18;;
70073;SDS011;57445;51.058;3.698;2022-07-22T09:09:57;9.55;;;4.90;;
70073;SDS011;57445;51.058;3.698;2022-07-22T09:12:24;9.68;;;4.70;;
70073;SDS011;57445;51.058;3.698;2022-07-22T09:14:55;9.55;;;5.75;;
70073;SDS011;57445;51.058;3.698;2022-07-22T09:17:27;9.38;;;5.15;;
70073;SDS011;57445;51.058;3.698;2022-07-22T09:19:57;9.45;;;4.68;;
70073;SDS011;57445;51.058;3.698;2022-07-22T09:22:36;9.23;;;4.88;;
70073;SDS011;57445;51.058;3.698;2022-07-22T09:27:49;10.70;;;4.45;;
70073;SDS011;57445;51.058;3.698;2022-07-22T09:30:18;11.23;;;4.93;;
70073;SDS011;57445;51.058;3.698;2022-07-22T09:32:47;8.30;;;4.90;;
70073;SDS011;57445;51.058;3.698;2022-07-22T09:35:16;7.82;;;4.70;;
70073;SDS011;57445;51.058;3.698;2022-07-22T09:37:48;11.80;;;5.47;;
70073;SDS011;57445;51.058;3.698;2022-07-22T09:40:18;8.55;;;6.07;;
70073;SDS011;57445;51.058;3.698;2022-07-22T09:42:48;10.02;;;6.57;;
70073;SDS011;57445;51.058;3.698;2022-07-22T09:45:16;10.48;;;6.13;;
70073;SDS011;57445;51.058;3.698;2022-07-22T09:47:45;11.77;;;7.20;;
70073;SDS011;57445;51.058;3.698;2022-07-22T09:50:16;10.13;;;6.30;;
70073;SDS011;57445;51.058;3.698;2022-07-22T09:52:45;9.82;;;6.50;;
70073;SDS011;57445;51.058;3.698;2022-07-22T09:55:14;11.18;;;6.38;;
70073;SDS011;57445;51.058;3.698;2022-07-22T09:57:42;10.55;;;6.40;;
70073;SDS011;57445;51.058;3.698;2022-07-22T10:00:10;12.48;;;6.88;;
70073;SDS011;57445;51.058;3.698;2022-07-22T10:02:40;12.43;;;7.25;;
70073;SDS011;57445;51.058;3.698;2022-07-22T10:05:11;10.52;;;7.10;;
70073;SDS011;57445;51.058;3.698;2022-07-22T10:07:41;10.20;;;7.20;;
70073;SDS011;57445;51.058;3.698;2022-07-22T10:10:11;13.13;;;8.55;;
70073;SDS011;57445;51.058;3.698;2022-07-22T10:12:39;10.40;;;7.38;;
70073;SDS011;57445;51.058;3.698;2022-07-22T10:15:07;11.05;;;8.82;;
70073;SDS011;57445;51.058;3.698;2022-07-22T10:17:35;10.57;;;8.20;;
70073;SDS011;57445;51.058;3.698;2022-07-22T10:20:05;10.80;;;7.75;;
70073;SDS011;57445;51.058;3.698;2022-07-22T10:22:48;11.75;;;7.90;;
70073;SDS011;57445;51.058;3.698;2022-07-22T10:25:17;13.95;;;9.00;;
70073;SDS011;57445;51.058;3.698;2022-07-22T10:27:46;11.82;;;8.35;;
70073;SDS011;57445;51.058;3.698;2022-07-22T10:30:15;10.80;;;8.95;;
70073;SDS011;57445;51.058;3.698;2022-07-22T10:32:45;13.15;;;9.07;;
70073;SDS011;57445;51.058;3.698;2022-07-22T10:35:28;14.15;;;9.45;;
70073;SDS011;57445;51.058;3.698;2022-07-22T10:38:01;13.10;;;9.73;;
70073;SDS011;57445;51.058;3.698;2022-07-22T10:40:33;12.35;;;8.95;;
70073;SDS011;57445;51.058;3.698;2022-07-22T10:43:12;12.15;;;9.57;;
70073;SDS011;57445;51.058;3.698;2022-07-22T10:45:41;12.15;;;8.90;;
70073;SDS011;57445;51.058;3.698;2022-07-22T10:48:12;12.10;;;8.65;;
70073;SDS011;57445;51.058;3.698;2022-07-22T10:50:48;11.70;;;8.77;;
70073;SDS011;57445;51.058;3.698;2022-07-22T10:53:19;10.05;;;9.05;;
70073;SDS011;57445;51.058;3.698;2022-07-22T10:55:58;10.10;;;8.25;;
70073;SDS011;57445;51.058;3.698;2022-07-22T10:58:41;11.05;;;8.50;;
70073;SDS011;57445;51.058;3.698;2022-07-22T11:01:10;11.20;;;8.95;;
70073;SDS011;57445;51.058;3.698;2022-07-22T11:03:39;11.20;;;7.93;;
70073;SDS011;57445;51.058;3.698;2022-07-22T11:06:15;10.15;;;8.05;;
70073;SDS011;57445;51.058;3.698;2022-07-22T11:08:45;11.88;;;7.90;;
70073;SDS011;57445;51.058;3.698;2022-07-22T11:11:14;12.40;;;9.55;;
70073;SDS011;57445;51.058;3.698;2022-07-22T11:13:42;11.95;;;8.70;;
70073;SDS011;57445;51.058;3.698;2022-07-22T11:16:17;10.52;;;8.95;;
70073;SDS011;57445;51.058;3.698;2022-07-22T11:18:47;10.10;;;8.75;;
70073;SDS011;57445;51.058;3.698;2022-07-22T11:21:16;11.93;;;9.27;;
70073;SDS011;57445;51.058;3.698;2022-07-22T11:23:48;12.20;;;9.73;;
70073;SDS011;57445;51.058;3.698;2022-07-22T11:26:17;12.88;;;9.80;;
70073;SDS011;57445;51.058;3.698;2022-07-22T11:28:46;12.00;;;9.38;;
70073;SDS011;57445;51.058;3.698;2022-07-22T11:31:14;11.13;;;9.02;;
70073;SDS011;57445;51.058;3.698;2022-07-22T11:33:43;11.25;;;9.98;;
70073;SDS011;57445;51.058;3.698;2022-07-22T11:36:10;10.80;;;9.57;;
70073;SDS011;57445;51.058;3.698;2022-07-22T11:38:42;11.85;;;9.10;;
70073;SDS011;57445;51.058;3.698;2022-07-22T11:41:12;14.23;;;10.10;;
70073;SDS011;57445;51.058;3.698;2022-07-22T11:43:41;13.57;;;10.20;;
70073;SDS011;57445;51.058;3.698;2022-07-22T11:46:09;16.42;;;9.50;;
70073;SDS011;57445;51.058;3.698;2022-07-22T11:48:37;12.50;;;8.32;;
70073;SDS011;57445;51.058;3.698;2022-07-22T11:51:05;13.40;;;8.50;;
70073;SDS011;57445;51.058;3.698;2022-07-22T11:53:36;13.00;;;8.15;;
70073;SDS011;57445;51.058;3.698;2022-07-22T11:56:03;12.30;;;9.52;;
70073;SDS011;57445;51.058;3.698;2022-07-22T11:58:36;11.88;;;9.15;;
70073;SDS011;57445;51.058;3.698;2022-07-22T12:01:06;11.65;;;8.13;;
70073;SDS011;57445;51.058;3.698;2022-07-22T12:03:34;11.38;;;8.25;;
70073;SDS011;57445;51.058;3.698;2022-07-22T12:06:03;10.52;;;8.75;;
70073;SDS011;57445;51.058;3.698;2022-07-22T12:08:32;12.20;;;9.27;;
70073;SDS011;57445;51.058;3.698;2022-07-22T12:11:01;13.77;;;10.30;;
70073;SDS011;57445;51.058;3.698;2022-07-22T12:13:29;11.50;;;9.63;;
70073;SDS011;57445;51.058;3.698;2022-07-22T12:15:58;11.57;;;8.73;;
70073;SDS011;57445;51.058;3.698;2022-07-22T12:18:26;11.38;;;8.45;;
70073;SDS011;57445;51.058;3.698;2022-07-22T12:20:55;11.27;;;9.88;;
70073;SDS011;57445;51.058;3.698;2022-07-22T12:23:23;13.02;;;7.88;;
70073;SDS011;57445;51.058;3.698;2022-07-22T12:25:52;10.20;;;8.73;;
70073;SDS011;57445;51.058;3.698;2022-07-22T12:28:21;11.30;;;9.30;;
70073;SDS011;57445;51.058;3.698;2022-07-22T12:30:48;10.35;;;9.27;;
70073;SDS011;57445;51.058;3.698;2022-07-22T12:33:18;11.30;;;9.50;;
70073;SDS011;57445;51.058;3.698;2022-07-22T12:35:57;11.30;;;8.93;;
70073;SDS011;57445;51.058;3.698;2022-07-22T12:38:26;16.40;;;8.82;;
70073;SDS011;57445;51.058;3.698;2022-07-22T12:40:55;11.20;;;9.05;;
70073;SDS011;57445;51.058;3.698;2022-07-22T12:43:25;9.80;;;7.43;;
70073;SDS011;57445;51.058;3.698;2022-07-22T12:45:52;9.82;;;6.53;;
70073;SDS011;57445;51.058;3.698;2022-07-22T12:48:21;10.20;;;6.20;;
70073;SDS011;57445;51.058;3.698;2022-07-22T12:50:56;11.35;;;7.50;;
70073;SDS011;57445;51.058;3.698;2022-07-22T12:53:24;10.73;;;8.00;;
70073;SDS011;57445;51.058;3.698;2022-07-22T12:55:56;10.60;;;7.40;;
70073;SDS011;57445;51.058;3.698;2022-07-22T12:58:26;8.77;;;6.45;;
70073;SDS011;57445;51.058;3.698;2022-07-22T13:00:55;11.27;;;6.22;;
70073;SDS011;57445;51.058;3.698;2022-07-22T13:03:25;11.60;;;6.10;;
70073;SDS011;57445;51.058;3.698;2022-07-22T13:05:54;9.35;;;6.32;;
70073;SDS011;57445;51.058;3.698;2022-07-22T13:08:22;8.85;;;6.85;;
70073;SDS011;57445;51.058;3.698;2022-07-22T13:10:51;11.73;;;6.07;;
70073;SDS011;57445;51.058;3.698;2022-07-22T13:13:18;11.13;;;6.60;;
70073;SDS011;57445;51.058;3.698;2022-07-22T13:15:46;10.63;;;6.00;;
70073;SDS011;57445;51.058;3.698;2022-07-22T13:18:15;11.23;;;6.25;;
70073;SDS011;57445;51.058;3.698;2022-07-22T13:20:44;9.18;;;5.72;;
70073;SDS011;57445;51.058;3.698;2022-07-22T13:23:13;11.02;;;6.68;;
70073;SDS011;57445;51.058;3.698;2022-07-22T13:25:41;7.85;;;5.57;;
70073;SDS011;57445;51.058;3.698;2022-07-22T13:28:10;11.40;;;6.85;;
70073;SDS011;57445;51.058;3.698;2022-07-22T13:30:39;8.98;;;6.47;;
70073;SDS011;57445;51.058;3.698;2022-07-22T13:33:06;9.05;;;5.93;;
70073;SDS011;57445;51.058;3.698;2022-07-22T13:35:33;9.90;;;6.20;;
70073;SDS011;57445;51.058;3.698;2022-07-22T13:38:03;9.88;;;6.40;;
70073;SDS011;57445;51.058;3.698;2022-07-22T13:40:30;9.55;;;5.38;;
70073;SDS011;57445;51.058;3.698;2022-07-22T13:42:57;8.65;;;5.40;;
70073;SDS011;57445;51.058;3.698;2022-07-22T13:45:24;9.48;;;5.43;;
70073;SDS011;57445;51.058;3.698;2022-07-22T13:47:51;7.88;;;5.20;;
70073;SDS011;57445;51.058;3.698;2022-07-22T13:50:18;8.57;;;5.38;;
70073;SDS011;57445;51.058;3.698;2022-07-22T13:52:46;9.48;;;5.25;;
70073;SDS011;57445;51.058;3.698;2022-07-22T13:55:14;10.48;;;5.15;;
70073;SDS011;57445;51.058;3.698;2022-07-22T13:57:42;9.00;;;4.88;;
70073;SDS011;57445;51.058;3.698;2022-07-22T14:00:10;9.90;;;5.20;;
70073;SDS011;57445;51.058;3.698;2022-07-22T14:02:37;9.95;;;4.70;;
70073;SDS011;57445;51.058;3.698;2022-07-22T14:05:06;8.65;;;4.78;;
70073;SDS011;57445;51.058;3.698;2022-07-22T14:07:33;9.52;;;4.95;;
70073;SDS011;57445;51.058;3.698;2022-07-22T14:10:01;9.02;;;4.93;;
70073;SDS011;57445;51.058;3.698;2022-07-22T14:12:30;10.90;;;5.13;;
70073;SDS011;57445;51.058;3.698;2022-07-22T14:14:57;10.00;;;4.40;;
70073;SDS011;57445;51.058;3.698;2022-07-22T14:17:24;8.43;;;4.82;;
70073;SDS011;57445;51.058;3.698;2022-07-22T14:19:51;9.73;;;5.32;;
70073;SDS011;57445;51.058;3.698;2022-07-22T14:22:18;11.07;;;5.20;;
70073;SDS011;57445;51.058;3.698;2022-07-22T14:24:45;8.90;;;5.03;;
70073;SDS011;57445;51.058;3.698;2022-07-22T14:27:12;10.40;;;5.38;;
70073;SDS011;57445;51.058;3.698;2022-07-22T14:29:40;9.70;;;5.43;;
70073;SDS011;57445;51.058;3.698;2022-07-22T14:32:07;9.65;;;5.05;;
70073;SDS011;57445;51.058;3.698;2022-07-22T14:34:34;9.25;;;5.65;;
70073;SDS011;57445;51.058;3.698;2022-07-22T14:37:01;7.45;;;5.38;;
70073;SDS011;57445;51.058;3.698;2022-07-22T14:39:28;9.10;;;5.80;;
70073;SDS011;57445;51.058;3.698;2022-07-22T14:41:55;9.02;;;5.78;;
70073;SDS011;57445;51.058;3.698;2022-07-22T14:44:22;11.70;;;6.88;;
70073;SDS011;57445;51.058;3.698;2022-07-22T14:46:51;9.05;;;5.88;;
70073;SDS011;57445;51.058;3.698;2022-07-22T14:49:17;11.15;;;5.72;;
70073;SDS011;57445;51.058;3.698;2022-07-22T14:51:44;14.68;;;6.43;;
70073;SDS011;57445;51.058;3.698;2022-07-22T14:54:11;11.00;;;6.30;;
70073;SDS011;57445;51.058;3.698;2022-07-22T14:56:38;8.35;;;6.47;;
70073;SDS011;57445;51.058;3.698;2022-07-22T14:59:06;13.82;;;6.78;;
70073;SDS011;57445;51.058;3.698;2022-07-22T15:01:33;11.57;;;7.10;;
70073;SDS011;57445;51.058;3.698;2022-07-22T15:04:01;8.95;;;6.13;;
70073;SDS011;57445;51.058;3.698;2022-07-22T15:06:29;12.30;;;6.57;;
70073;SDS011;57445;51.058;3.698;2022-07-22T15:08:56;8.90;;;6.25;;
70073;SDS011;57445;51.058;3.698;2022-07-22T15:11:23;12.23;;;6.18;;
70073;SDS011;57445;51.058;3.698;2022-07-22T15:13:50;11.60;;;6.82;;
70073;SDS011;57445;51.058;3.698;2022-07-22T15:16:17;10.60;;;7.50;;
70073;SDS011;57445;51.058;3.698;2022-07-22T15:18:44;9.45;;;6.20;;
70073;SDS011;57445;51.058;3.698;2022-07-22T15:21:13;10.27;;;7.35;;
70073;SDS011;57445;51.058;3.698;2022-07-22T15:23:41;13.98;;;8.82;;
70073;SDS011;57445;51.058;3.698;2022-07-22T15:26:08;10.00;;;6.53;;
70073;SDS011;57445;51.058;3.698;2022-07-22T15:28:36;11.48;;;7.53;;